sensor_id;sensor_type;location;lat;lon;timestamp;temperature;humidity
3380;DHT22;1703;51.964;7.642;2023-11-18T00:00:12;4.20;99.90
3380;DHT22;1703;51.964;7.642;2023-11-18T00:02:42;4.20;99.90
3380;DHT22;1703;51.964;7.642;2023-11-18T00:05:09;4.20;99.90
3380;DHT22;1703;51.964;7.642;2023-11-18T00:07:37;4.20;99.90
3380;DHT22;1703;51.964;7.642;2023-11-18T00:10:05;4.20;99.90
3380;DHT22;1703;51.964;7.642;2023-11-18T00:12:34;4.20;99.90
3380;DHT22;1703;51.964;7.642;2023-11-18T00:15:01;4.20;99.90
3380;DHT22;1703;51.964;7.642;2023-11-18T00:17:29;4.20;99.90
3380;DHT22;1703;51.964;7.642;2023-11-18T00:19:56;4.20;99.90
3380;DHT22;1703;51.964;7.642;2023-11-18T00:22:23;4.20;99.90
3380;DHT22;1703;51.964;7.642;2023-11-18T00:24:51;4.20;99.90
3380;DHT22;1703;51.964;7.642;2023-11-18T00:27:18;4.20;99.90
3380;DHT22;1703;51.964;7.642;2023-11-18T00:29:45;4.10;99.90
3380;DHT22;1703;51.964;7.642;2023-11-18T00:32:12;4.20;99.90
3380;DHT22;1703;51.964;7.642;2023-11-18T00:34:39;4.10;99.90
3380;DHT22;1703;51.964;7.642;2023-11-18T00:37:05;4.10;99.90
3380;DHT22;1703;51.964;7.642;2023-11-18T00:39:32;4.10;99.90
3380;DHT22;1703;51.964;7.642;2023-11-18T00:42:01;4.00;99.90
3380;DHT22;1703;51.964;7.642;2023-11-18T00:44:28;4.10;99.90
3380;DHT22;1703;51.964;7.642;2023-11-18T00:46:54;4.10;99.90
3380;DHT22;1703;51.964;7.642;2023-11-18T00:49:23;4.10;99.90
3380;DHT22;1703;51.964;7.642;2023-11-18T00:51:51;4.10;99.90
3380;DHT22;1703;51.964;7.642;2023-11-18T00:54:18;4.10;99.90
3380;DHT22;1703;51.964;7.642;2023-11-18T00:56:45;4.10;99.90
3380;DHT22;1703;51.964;7.642;2023-11-18T00:59:13;4.10;99.90
3380;DHT22;1703;51.964;7.642;2023-11-18T01:01:41;4.20;99.90
3380;DHT22;1703;51.964;7.642;2023-11-18T01:04:08;4.10;99.90
3380;DHT22;1703;51.964;7.642;2023-11-18T01:06:36;4.10;99.90
3380;DHT22;1703;51.964;7.642;2023-11-18T01:09:03;4.10;99.90
3380;DHT22;1703;51.964;7.642;2023-11-18T01:11:32;4.10;99.90
3380;DHT22;1703;51.964;7.642;2023-11-18T01:13:59;4.10;99.90
3380;DHT22;1703;51.964;7.642;2023-11-18T01:16:28;4.10;99.90
3380;DHT22;1703;51.964;7.642;2023-11-18T01:18:56;4.10;99.90
3380;DHT22;1703;51.964;7.642;2023-11-18T01:21:23;4.10;99.90
3380;DHT22;1703;51.964;7.642;2023-11-18T01:23:50;4.10;99.90
3380;DHT22;1703;51.964;7.642;2023-11-18T01:26:17;4.10;99.90
3380;DHT22;1703;51.964;7.642;2023-11-18T01:28:43;4.20;99.90
3380;DHT22;1703;51.964;7.642;2023-11-18T01:31:12;4.10;99.90
3380;DHT22;1703;51.964;7.642;2023-11-18T01:33:40;4.10;99.90
3380;DHT22;1703;51.964;7.642;2023-11-18T01:36:08;4.10;99.90
3380;DHT22;1703;51.964;7.642;2023-11-18T01:38:35;4.10;99.90
3380;DHT22;1703;51.964;7.642;2023-11-18T01:41:03;4.10;99.90
3380;DHT22;1703;51.964;7.642;2023-11-18T01:43:31;4.00;99.90
3380;DHT22;1703;51.964;7.642;2023-11-18T01:45:58;4.00;99.90
3380;DHT22;1703;51.964;7.642;2023-11-18T01:48:27;4.00;99.90
3380;DHT22;1703;51.964;7.642;2023-11-18T01:50:57;4.00;99.90
3380;DHT22;1703;51.964;7.642;2023-11-18T01:53:24;4.00;99.90
3380;DHT22;1703;51.964;7.642;2023-11-18T01:55:52;4.00;99.90
3380;DHT22;1703;51.964;7.642;2023-11-18T01:58:20;4.00;99.90
3380;DHT22;1703;51.964;7.642;2023-11-18T02:00:49;3.90;99.90
3380;DHT22;1703;51.964;7.642;2023-11-18T02:03:18;3.90;99.90
3380;DHT22;1703;51.964;7.642;2023-11-18T02:05:46;3.90;99.90
3380;DHT22;1703;51.964;7.642;2023-11-18T02:08:14;3.90;99.90
3380;DHT22;1703;51.964;7.642;2023-11-18T02:10:46;3.90;99.90
3380;DHT22;1703;51.964;7.642;2023-11-18T02:13:22;3.90;99.90
3380;DHT22;1703;51.964;7.642;2023-11-18T02:15:53;3.80;99.90
3380;DHT22;1703;51.964;7.642;2023-11-18T02:18:24;3.80;99.90
3380;DHT22;1703;51.964;7.642;2023-11-18T02:20:54;3.80;99.90
3380;DHT22;1703;51.964;7.642;2023-11-18T02:23:24;3.80;99.90
3380;DHT22;1703;51.964;7.642;2023-11-18T02:25:53;3.70;99.90
3380;DHT22;1703;51.964;7.642;2023-11-18T02:28:21;3.80;99.90
3380;DHT22;1703;51.964;7.642;2023-11-18T02:30:50;3.80;99.90
3380;DHT22;1703;51.964;7.642;2023-11-18T02:33:24;3.80;99.90
3380;DHT22;1703;51.964;7.642;2023-11-18T02:35:59;3.80;99.90
3380;DHT22;1703;51.964;7.642;2023-11-18T02:38:30;3.80;99.90
3380;DHT22;1703;51.964;7.642;2023-11-18T02:41:04;3.80;99.90
3380;DHT22;1703;51.964;7.642;2023-11-18T02:43:36;3.70;99.90
3380;DHT22;1703;51.964;7.642;2023-11-18T02:46:06;3.70;99.90
3380;DHT22;1703;51.964;7.642;2023-11-18T02:48:33;3.70;99.90
3380;DHT22;1703;51.964;7.642;2023-11-18T02:51:01;3.70;99.90
3380;DHT22;1703;51.964;7.642;2023-11-18T02:53:28;3.70;99.90
3380;DHT22;1703;51.964;7.642;2023-11-18T02:55:55;3.60;99.90
3380;DHT22;1703;51.964;7.642;2023-11-18T02:58:29;3.50;99.90
3380;DHT22;1703;51.964;7.642;2023-11-18T03:00:56;3.50;99.90
3380;DHT22;1703;51.964;7.642;2023-11-18T03:03:24;3.60;99.90
3380;DHT22;1703;51.964;7.642;2023-11-18T03:05:52;3.60;99.90
3380;DHT22;1703;51.964;7.642;2023-11-18T03:08:21;3.50;99.90
3380;DHT22;1703;51.964;7.642;2023-11-18T03:10:48;3.50;99.90
3380;DHT22;1703;51.964;7.642;2023-11-18T03:13:16;3.50;99.90
3380;DHT22;1703;51.964;7.642;2023-11-18T03:15:44;3.50;99.90
3380;DHT22;1703;51.964;7.642;2023-11-18T03:18:13;3.50;99.90
3380;DHT22;1703;51.964;7.642;2023-11-18T03:20:42;3.60;99.90
3380;DHT22;1703;51.964;7.642;2023-11-18T03:23:09;3.60;99.90
3380;DHT22;1703;51.964;7.642;2023-11-18T03:25:36;3.60;99.90
3380;DHT22;1703;51.964;7.642;2023-11-18T03:28:03;3.60;99.90
3380;DHT22;1703;51.964;7.642;2023-11-18T03:30:32;3.60;99.90
3380;DHT22;1703;51.964;7.642;2023-11-18T03:33:00;3.70;99.90
3380;DHT22;1703;51.964;7.642;2023-11-18T03:35:27;3.70;99.90
3380;DHT22;1703;51.964;7.642;2023-11-18T03:37:54;3.70;99.90
3380;DHT22;1703;51.964;7.642;2023-11-18T03:40:20;3.70;99.90
3380;DHT22;1703;51.964;7.642;2023-11-18T03:42:47;3.60;99.90
3380;DHT22;1703;51.964;7.642;2023-11-18T03:45:14;3.60;99.90
3380;DHT22;1703;51.964;7.642;2023-11-18T03:47:43;3.60;99.90
3380;DHT22;1703;51.964;7.642;2023-11-18T03:50:12;3.50;99.90
3380;DHT22;1703;51.964;7.642;2023-11-18T03:52:39;3.50;99.90
3380;DHT22;1703;51.964;7.642;2023-11-18T03:55:07;3.50;99.90
3380;DHT22;1703;51.964;7.642;2023-11-18T03:57:33;3.50;99.90
3380;DHT22;1703;51.964;7.642;2023-11-18T04:00:00;3.50;99.90
3380;DHT22;1703;51.964;7.642;2023-11-18T04:02:35;3.50;99.90
3380;DHT22;1703;51.964;7.642;2023-11-18T04:05:03;3.50;99.90
3380;DHT22;1703;51.964;7.642;2023-11-18T04:07:31;3.50;99.90
3380;DHT22;1703;51.964;7.642;2023-11-18T04:09:58;3.50;99.90
3380;DHT22;1703;51.964;7.642;2023-11-18T04:12:25;3.50;99.90
3380;DHT22;1703;51.964;7.642;2023-11-18T04:14:52;3.40;99.90
3380;DHT22;1703;51.964;7.642;2023-11-18T04:17:19;3.40;99.90
3380;DHT22;1703;51.964;7.642;2023-11-18T04:19:46;3.40;99.90
3380;DHT22;1703;51.964;7.642;2023-11-18T04:22:12;3.40;99.90
3380;DHT22;1703;51.964;7.642;2023-11-18T04:24:40;3.40;99.90
3380;DHT22;1703;51.964;7.642;2023-11-18T04:27:10;3.40;99.90
3380;DHT22;1703;51.964;7.642;2023-11-18T04:29:37;3.40;99.90
3380;DHT22;1703;51.964;7.642;2023-11-18T04:32:06;3.40;99.90
3380;DHT22;1703;51.964;7.642;2023-11-18T04:34:35;3.40;99.90
3380;DHT22;1703;51.964;7.642;2023-11-18T04:37:02;3.40;99.90
3380;DHT22;1703;51.964;7.642;2023-11-18T04:39:31;3.40;99.90
3380;DHT22;1703;51.964;7.642;2023-11-18T04:41:59;3.40;99.90
3380;DHT22;1703;51.964;7.642;2023-11-18T04:44:27;3.50;99.90
3380;DHT22;1703;51.964;7.642;2023-11-18T04:46:57;3.40;99.90
3380;DHT22;1703;51.964;7.642;2023-11-18T04:49:23;3.40;99.90
3380;DHT22;1703;51.964;7.642;2023-11-18T04:51:50;3.40;99.90
3380;DHT22;1703;51.964;7.642;2023-11-18T04:54:17;3.40;99.90
3380;DHT22;1703;51.964;7.642;2023-11-18T04:56:45;3.40;99.90
3380;DHT22;1703;51.964;7.642;2023-11-18T04:59:13;3.40;99.90
3380;DHT22;1703;51.964;7.642;2023-11-18T05:01:40;3.40;99.90
3380;DHT22;1703;51.964;7.642;2023-11-18T05:04:07;3.40;99.90
3380;DHT22;1703;51.964;7.642;2023-11-18T05:06:35;3.40;99.90
3380;DHT22;1703;51.964;7.642;2023-11-18T05:09:01;3.40;99.90
3380;DHT22;1703;51.964;7.642;2023-11-18T05:11:33;3.50;99.90
3380;DHT22;1703;51.964;7.642;2023-11-18T05:14:00;3.50;99.90
3380;DHT22;1703;51.964;7.642;2023-11-18T05:16:29;3.60;99.90
3380;DHT22;1703;51.964;7.642;2023-11-18T05:18:56;3.70;99.90
3380;DHT22;1703;51.964;7.642;2023-11-18T05:21:23;3.70;99.90
3380;DHT22;1703;51.964;7.642;2023-11-18T05:23:50;3.70;99.90
3380;DHT22;1703;51.964;7.642;2023-11-18T05:26:17;3.70;99.90
3380;DHT22;1703;51.964;7.642;2023-11-18T05:28:43;3.80;99.90
3380;DHT22;1703;51.964;7.642;2023-11-18T05:31:10;3.80;99.90
3380;DHT22;1703;51.964;7.642;2023-11-18T05:33:38;3.80;99.90
3380;DHT22;1703;51.964;7.642;2023-11-18T05:36:07;3.70;99.90
3380;DHT22;1703;51.964;7.642;2023-11-18T05:38:34;3.70;99.90
3380;DHT22;1703;51.964;7.642;2023-11-18T05:41:00;3.80;99.90
3380;DHT22;1703;51.964;7.642;2023-11-18T05:43:30;3.70;99.90
3380;DHT22;1703;51.964;7.642;2023-11-18T05:46:04;3.70;99.90
3380;DHT22;1703;51.964;7.642;2023-11-18T05:48:48;3.70;99.90
3380;DHT22;1703;51.964;7.642;2023-11-18T05:51:19;3.70;99.90
3380;DHT22;1703;51.964;7.642;2023-11-18T05:53:46;3.70;99.90
3380;DHT22;1703;51.964;7.642;2023-11-18T05:56:13;3.70;99.90
3380;DHT22;1703;51.964;7.642;2023-11-18T05:58:40;3.70;99.90
3380;DHT22;1703;51.964;7.642;2023-11-18T06:01:08;3.70;99.90
3380;DHT22;1703;51.964;7.642;2023-11-18T06:03:37;3.70;99.90
3380;DHT22;1703;51.964;7.642;2023-11-18T06:06:06;3.70;99.90
3380;DHT22;1703;51.964;7.642;2023-11-18T06:08:33;3.80;99.90
3380;DHT22;1703;51.964;7.642;2023-11-18T06:11:00;3.70;99.90
3380;DHT22;1703;51.964;7.642;2023-11-18T06:13:39;3.70;99.90
3380;DHT22;1703;51.964;7.642;2023-11-18T06:16:09;3.60;99.90
3380;DHT22;1703;51.964;7.642;2023-11-18T06:18:40;3.70;99.90
3380;DHT22;1703;51.964;7.642;2023-11-18T06:21:11;3.60;99.90
3380;DHT22;1703;51.964;7.642;2023-11-18T06:23:37;3.60;99.90
3380;DHT22;1703;51.964;7.642;2023-11-18T06:26:05;3.60;99.90
3380;DHT22;1703;51.964;7.642;2023-11-18T06:28:31;3.60;99.90
3380;DHT22;1703;51.964;7.642;2023-11-18T06:30:59;3.50;99.90
3380;DHT22;1703;51.964;7.642;2023-11-18T06:33:26;3.60;99.90
3380;DHT22;1703;51.964;7.642;2023-11-18T06:35:53;3.50;99.90
3380;DHT22;1703;51.964;7.642;2023-11-18T06:38:23;3.60;99.90
3380;DHT22;1703;51.964;7.642;2023-11-18T06:40:50;3.60;99.90
3380;DHT22;1703;51.964;7.642;2023-11-18T06:43:18;3.60;99.90
3380;DHT22;1703;51.964;7.642;2023-11-18T06:45:46;3.70;99.90
3380;DHT22;1703;51.964;7.642;2023-11-18T06:48:14;3.70;99.90
3380;DHT22;1703;51.964;7.642;2023-11-18T06:50:46;3.80;99.90
3380;DHT22;1703;51.964;7.642;2023-11-18T06:53:13;3.80;99.90
3380;DHT22;1703;51.964;7.642;2023-11-18T06:55:42;3.80;99.90
3380;DHT22;1703;51.964;7.642;2023-11-18T06:58:09;3.70;99.90
3380;DHT22;1703;51.964;7.642;2023-11-18T07:00:36;3.70;99.90
3380;DHT22;1703;51.964;7.642;2023-11-18T07:03:04;3.80;99.90
3380;DHT22;1703;51.964;7.642;2023-11-18T07:05:32;3.80;99.90
3380;DHT22;1703;51.964;7.642;2023-11-18T07:07:59;3.80;99.90
3380;DHT22;1703;51.964;7.642;2023-11-18T07:10:25;3.80;99.90
3380;DHT22;1703;51.964;7.642;2023-11-18T07:12:54;3.90;99.90
3380;DHT22;1703;51.964;7.642;2023-11-18T07:15:21;3.90;99.90
3380;DHT22;1703;51.964;7.642;2023-11-18T07:17:48;4.00;99.90
3380;DHT22;1703;51.964;7.642;2023-11-18T07:20:17;3.90;99.90
3380;DHT22;1703;51.964;7.642;2023-11-18T07:22:43;3.90;99.90
3380;DHT22;1703;51.964;7.642;2023-11-18T07:25:10;3.90;99.90
3380;DHT22;1703;51.964;7.642;2023-11-18T07:27:38;4.00;99.90
3380;DHT22;1703;51.964;7.642;2023-11-18T07:30:07;4.00;99.90
3380;DHT22;1703;51.964;7.642;2023-11-18T07:32:36;4.00;99.90
3380;DHT22;1703;51.964;7.642;2023-11-18T07:35:04;4.00;99.90
3380;DHT22;1703;51.964;7.642;2023-11-18T07:37:34;4.10;99.90
3380;DHT22;1703;51.964;7.642;2023-11-18T07:40:03;4.20;99.90
3380;DHT22;1703;51.964;7.642;2023-11-18T07:42:31;4.20;99.90
3380;DHT22;1703;51.964;7.642;2023-11-18T07:45:00;4.30;99.90
3380;DHT22;1703;51.964;7.642;2023-11-18T07:47:31;4.30;99.90
3380;DHT22;1703;51.964;7.642;2023-11-18T07:49:58;4.40;99.90
3380;DHT22;1703;51.964;7.642;2023-11-18T07:52:26;4.50;99.90
3380;DHT22;1703;51.964;7.642;2023-11-18T07:54:54;4.50;99.90
3380;DHT22;1703;51.964;7.642;2023-11-18T07:57:22;4.60;99.90
3380;DHT22;1703;51.964;7.642;2023-11-18T07:59:53;4.60;99.90
3380;DHT22;1703;51.964;7.642;2023-11-18T08:02:20;4.60;99.90
3380;DHT22;1703;51.964;7.642;2023-11-18T08:04:48;4.60;99.90
3380;DHT22;1703;51.964;7.642;2023-11-18T08:07:15;4.60;99.90
3380;DHT22;1703;51.964;7.642;2023-11-18T08:09:42;4.70;99.90
3380;DHT22;1703;51.964;7.642;2023-11-18T08:12:08;4.70;99.90
3380;DHT22;1703;51.964;7.642;2023-11-18T08:14:35;4.60;99.90
3380;DHT22;1703;51.964;7.642;2023-11-18T08:17:02;4.60;99.90
3380;DHT22;1703;51.964;7.642;2023-11-18T08:19:31;4.60;99.90
3380;DHT22;1703;51.964;7.642;2023-11-18T08:22:01;4.60;99.90
3380;DHT22;1703;51.964;7.642;2023-11-18T08:24:35;4.60;99.90
3380;DHT22;1703;51.964;7.642;2023-11-18T08:31:06;4.60;99.90
3380;DHT22;1703;51.964;7.642;2023-11-18T08:33:58;4.60;99.90
3380;DHT22;1703;51.964;7.642;2023-11-18T08:36:34;4.60;99.90
3380;DHT22;1703;51.964;7.642;2023-11-18T08:39:16;4.70;99.90
3380;DHT22;1703;51.964;7.642;2023-11-18T08:41:43;4.80;99.90
3380;DHT22;1703;51.964;7.642;2023-11-18T08:44:11;4.90;99.90
3380;DHT22;1703;51.964;7.642;2023-11-18T08:46:46;5.00;99.90
3380;DHT22;1703;51.964;7.642;2023-11-18T08:49:27;5.10;99.90
3380;DHT22;1703;51.964;7.642;2023-11-18T08:52:08;5.20;99.90
3380;DHT22;1703;51.964;7.642;2023-11-18T08:54:39;5.30;99.90
3380;DHT22;1703;51.964;7.642;2023-11-18T08:57:26;5.30;99.90
3380;DHT22;1703;51.964;7.642;2023-11-18T08:59:59;5.30;99.90
3380;DHT22;1703;51.964;7.642;2023-11-18T09:02:32;5.30;99.90
3380;DHT22;1703;51.964;7.642;2023-11-18T09:05:03;5.40;99.90
3380;DHT22;1703;51.964;7.642;2023-11-18T09:07:38;5.50;99.90
3380;DHT22;1703;51.964;7.642;2023-11-18T09:10:07;5.50;99.90
3380;DHT22;1703;51.964;7.642;2023-11-18T09:12:34;5.50;99.90
3380;DHT22;1703;51.964;7.642;2023-11-18T09:15:01;5.60;99.90
3380;DHT22;1703;51.964;7.642;2023-11-18T09:17:29;5.70;99.90
3380;DHT22;1703;51.964;7.642;2023-11-18T09:19:56;5.70;99.90
3380;DHT22;1703;51.964;7.642;2023-11-18T09:22:25;5.70;99.90
3380;DHT22;1703;51.964;7.642;2023-11-18T09:24:51;5.70;99.90
3380;DHT22;1703;51.964;7.642;2023-11-18T09:27:20;5.80;99.90
3380;DHT22;1703;51.964;7.642;2023-11-18T09:29:48;5.80;99.90
3380;DHT22;1703;51.964;7.642;2023-11-18T09:32:15;5.80;99.90
3380;DHT22;1703;51.964;7.642;2023-11-18T09:34:42;5.90;99.90
3380;DHT22;1703;51.964;7.642;2023-11-18T09:37:12;5.80;99.90
3380;DHT22;1703;51.964;7.642;2023-11-18T09:39:39;5.90;99.90
3380;DHT22;1703;51.964;7.642;2023-11-18T09:42:12;5.90;99.90
3380;DHT22;1703;51.964;7.642;2023-11-18T09:44:48;5.90;99.90
3380;DHT22;1703;51.964;7.642;2023-11-18T09:47:21;5.90;99.90
3380;DHT22;1703;51.964;7.642;2023-11-18T09:49:52;5.90;99.90
3380;DHT22;1703;51.964;7.642;2023-11-18T09:52:21;5.90;99.90
3380;DHT22;1703;51.964;7.642;2023-11-18T09:54:55;5.90;99.90
3380;DHT22;1703;51.964;7.642;2023-11-18T09:57:32;5.90;99.90
3380;DHT22;1703;51.964;7.642;2023-11-18T10:00:09;6.00;99.90
3380;DHT22;1703;51.964;7.642;2023-11-18T10:02:46;6.00;99.90
3380;DHT22;1703;51.964;7.642;2023-11-18T10:05:16;6.00;99.90
3380;DHT22;1703;51.964;7.642;2023-11-18T10:07:47;6.10;99.90
3380;DHT22;1703;51.964;7.642;2023-11-18T10:10:14;6.20;99.90
3380;DHT22;1703;51.964;7.642;2023-11-18T10:12:47;6.20;99.90
3380;DHT22;1703;51.964;7.642;2023-11-18T10:15:21;6.30;99.90
3380;DHT22;1703;51.964;7.642;2023-11-18T10:17:50;6.40;99.90
3380;DHT22;1703;51.964;7.642;2023-11-18T10:20:43;6.50;99.90
3380;DHT22;1703;51.964;7.642;2023-11-18T10:23:12;6.70;99.90
3380;DHT22;1703;51.964;7.642;2023-11-18T10:25:48;6.70;99.90
3380;DHT22;1703;51.964;7.642;2023-11-18T10:28:22;6.70;99.90
3380;DHT22;1703;51.964;7.642;2023-11-18T10:30:51;6.70;99.90
3380;DHT22;1703;51.964;7.642;2023-11-18T10:33:27;6.70;99.90
3380;DHT22;1703;51.964;7.642;2023-11-18T10:35:56;6.70;99.90
3380;DHT22;1703;51.964;7.642;2023-11-18T10:38:24;6.70;99.90
3380;DHT22;1703;51.964;7.642;2023-11-18T10:40:56;6.70;99.90
3380;DHT22;1703;51.964;7.642;2023-11-18T10:43:23;6.80;99.90
3380;DHT22;1703;51.964;7.642;2023-11-18T10:46:04;6.80;99.90
3380;DHT22;1703;51.964;7.642;2023-11-18T10:48:38;6.90;99.90
3380;DHT22;1703;51.964;7.642;2023-11-18T10:51:08;6.90;99.90
3380;DHT22;1703;51.964;7.642;2023-11-18T10:53:37;6.90;99.90
3380;DHT22;1703;51.964;7.642;2023-11-18T10:56:05;6.90;99.90
3380;DHT22;1703;51.964;7.642;2023-11-18T10:58:36;6.90;99.90
3380;DHT22;1703;51.964;7.642;2023-11-18T11:01:07;6.90;99.90
3380;DHT22;1703;51.964;7.642;2023-11-18T11:03:52;6.90;99.90
3380;DHT22;1703;51.964;7.642;2023-11-18T11:06:22;7.00;99.90
3380;DHT22;1703;51.964;7.642;2023-11-18T11:08:52;7.00;99.90
3380;DHT22;1703;51.964;7.642;2023-11-18T11:11:43;7.00;99.90
3380;DHT22;1703;51.964;7.642;2023-11-18T11:14:14;7.00;99.90
3380;DHT22;1703;51.964;7.642;2023-11-18T11:16:47;7.00;99.90
3380;DHT22;1703;51.964;7.642;2023-11-18T11:19:29;6.90;99.90
3380;DHT22;1703;51.964;7.642;2023-11-18T11:22:05;6.90;99.90
3380;DHT22;1703;51.964;7.642;2023-11-18T11:24:41;6.90;99.90
3380;DHT22;1703;51.964;7.642;2023-11-18T11:27:21;6.90;99.90
3380;DHT22;1703;51.964;7.642;2023-11-18T11:37:54;7.10;99.90
3380;DHT22;1703;51.964;7.642;2023-11-18T11:40:49;7.20;99.90
3380;DHT22;1703;51.964;7.642;2023-11-18T11:43:47;7.20;99.90
3380;DHT22;1703;51.964;7.642;2023-11-18T11:46:15;7.20;99.90
3380;DHT22;1703;51.964;7.642;2023-11-18T11:48:49;7.20;99.90
3380;DHT22;1703;51.964;7.642;2023-11-18T11:51:29;7.20;99.90
3380;DHT22;1703;51.964;7.642;2023-11-18T11:54:09;7.30;99.90
3380;DHT22;1703;51.964;7.642;2023-11-18T11:56:42;7.30;99.90
3380;DHT22;1703;51.964;7.642;2023-11-18T11:59:10;7.30;99.90
3380;DHT22;1703;51.964;7.642;2023-11-18T12:01:40;7.20;99.90
3380;DHT22;1703;51.964;7.642;2023-11-18T12:04:12;7.30;99.90
3380;DHT22;1703;51.964;7.642;2023-11-18T12:06:47;7.30;99.90
3380;DHT22;1703;51.964;7.642;2023-11-18T12:09:20;7.40;99.90
3380;DHT22;1703;51.964;7.642;2023-11-18T12:11:47;7.40;99.90
3380;DHT22;1703;51.964;7.642;2023-11-18T12:14:18;7.40;99.90
3380;DHT22;1703;51.964;7.642;2023-11-18T12:17:04;7.50;99.90
3380;DHT22;1703;51.964;7.642;2023-11-18T12:19:37;7.50;99.90
3380;DHT22;1703;51.964;7.642;2023-11-18T12:22:13;7.40;99.90
3380;DHT22;1703;51.964;7.642;2023-11-18T12:28:10;7.50;99.90
3380;DHT22;1703;51.964;7.642;2023-11-18T12:30:44;7.50;99.90
3380;DHT22;1703;51.964;7.642;2023-11-18T12:33:23;7.50;99.90
3380;DHT22;1703;51.964;7.642;2023-11-18T12:42:04;7.50;99.90
3380;DHT22;1703;51.964;7.642;2023-11-18T12:45:12;7.60;99.90
3380;DHT22;1703;51.964;7.642;2023-11-18T12:48:05;7.60;99.90
3380;DHT22;1703;51.964;7.642;2023-11-18T12:50:52;7.50;99.90
3380;DHT22;1703;51.964;7.642;2023-11-18T12:53:41;7.50;99.90
3380;DHT22;1703;51.964;7.642;2023-11-18T12:56:22;7.50;99.90
3380;DHT22;1703;51.964;7.642;2023-11-18T12:59:08;7.50;99.90
3380;DHT22;1703;51.964;7.642;2023-11-18T13:01:56;7.60;99.90
3380;DHT22;1703;51.964;7.642;2023-11-18T13:05:21;7.50;99.90
3380;DHT22;1703;51.964;7.642;2023-11-18T13:08:16;7.50;99.90
3380;DHT22;1703;51.964;7.642;2023-11-18T13:10:57;7.40;99.90
3380;DHT22;1703;51.964;7.642;2023-11-18T13:13:28;7.40;99.90
3380;DHT22;1703;51.964;7.642;2023-11-18T13:15:58;7.40;99.90
3380;DHT22;1703;51.964;7.642;2023-11-18T13:18:25;7.40;99.90
3380;DHT22;1703;51.964;7.642;2023-11-18T13:20:56;7.40;99.90
3380;DHT22;1703;51.964;7.642;2023-11-18T13:23:25;7.40;99.90
3380;DHT22;1703;51.964;7.642;2023-11-18T13:25:55;7.30;99.90
3380;DHT22;1703;51.964;7.642;2023-11-18T13:28:22;7.30;99.90
3380;DHT22;1703;51.964;7.642;2023-11-18T13:30:50;7.30;99.90
3380;DHT22;1703;51.964;7.642;2023-11-18T13:33:18;7.30;99.90
3380;DHT22;1703;51.964;7.642;2023-11-18T13:35:47;7.30;99.90
3380;DHT22;1703;51.964;7.642;2023-11-18T13:38:14;7.30;99.90
3380;DHT22;1703;51.964;7.642;2023-11-18T13:40:44;7.30;99.90
3380;DHT22;1703;51.964;7.642;2023-11-18T13:43:12;7.30;99.90
3380;DHT22;1703;51.964;7.642;2023-11-18T13:45:41;7.30;99.90
3380;DHT22;1703;51.964;7.642;2023-11-18T13:48:11;7.30;99.90
3380;DHT22;1703;51.964;7.642;2023-11-18T13:50:47;7.30;99.90
3380;DHT22;1703;51.964;7.642;2023-11-18T13:53:14;7.30;99.90
3380;DHT22;1703;51.964;7.642;2023-11-18T13:55:42;7.30;99.90
3380;DHT22;1703;51.964;7.642;2023-11-18T13:58:10;7.30;99.90
3380;DHT22;1703;51.964;7.642;2023-11-18T14:00:37;7.30;99.90
3380;DHT22;1703;51.964;7.642;2023-11-18T14:03:04;7.30;99.90
3380;DHT22;1703;51.964;7.642;2023-11-18T14:05:33;7.30;99.90
3380;DHT22;1703;51.964;7.642;2023-11-18T14:08:06;7.40;99.90
3380;DHT22;1703;51.964;7.642;2023-11-18T14:10:35;7.40;99.90
3380;DHT22;1703;51.964;7.642;2023-11-18T14:13:06;7.40;99.90
3380;DHT22;1703;51.964;7.642;2023-11-18T14:15:37;7.30;99.90
3380;DHT22;1703;51.964;7.642;2023-11-18T14:18:09;7.40;99.90
3380;DHT22;1703;51.964;7.642;2023-11-18T14:20:36;7.30;99.90
3380;DHT22;1703;51.964;7.642;2023-11-18T14:23:06;7.30;99.90
3380;DHT22;1703;51.964;7.642;2023-11-18T14:25:34;7.40;99.90
3380;DHT22;1703;51.964;7.642;2023-11-18T14:28:04;7.50;99.90
3380;DHT22;1703;51.964;7.642;2023-11-18T14:30:36;7.50;99.90
3380;DHT22;1703;51.964;7.642;2023-11-18T14:33:04;7.50;99.90
3380;DHT22;1703;51.964;7.642;2023-11-18T14:35:32;7.50;99.90
3380;DHT22;1703;51.964;7.642;2023-11-18T14:38:07;7.50;99.90
3380;DHT22;1703;51.964;7.642;2023-11-18T14:40:36;7.60;99.90
3380;DHT22;1703;51.964;7.642;2023-11-18T14:43:05;7.60;99.90
3380;DHT22;1703;51.964;7.642;2023-11-18T14:45:34;7.70;99.90
3380;DHT22;1703;51.964;7.642;2023-11-18T14:48:03;7.70;99.90
3380;DHT22;1703;51.964;7.642;2023-11-18T14:50:33;7.70;99.90
3380;DHT22;1703;51.964;7.642;2023-11-18T14:53:04;7.80;99.90
3380;DHT22;1703;51.964;7.642;2023-11-18T14:55:34;7.70;99.90
3380;DHT22;1703;51.964;7.642;2023-11-18T14:58:05;7.70;99.90
3380;DHT22;1703;51.964;7.642;2023-11-18T15:00:33;7.70;99.90
3380;DHT22;1703;51.964;7.642;2023-11-18T15:03:01;7.70;99.90
3380;DHT22;1703;51.964;7.642;2023-11-18T15:05:28;7.70;99.90
3380;DHT22;1703;51.964;7.642;2023-11-18T15:07:57;7.80;99.90
3380;DHT22;1703;51.964;7.642;2023-11-18T15:10:25;7.70;99.90
3380;DHT22;1703;51.964;7.642;2023-11-18T15:12:55;7.60;99.90
3380;DHT22;1703;51.964;7.642;2023-11-18T15:15:25;7.60;99.90
3380;DHT22;1703;51.964;7.642;2023-11-18T15:17:57;7.60;99.90
3380;DHT22;1703;51.964;7.642;2023-11-18T15:20:25;7.60;99.90
3380;DHT22;1703;51.964;7.642;2023-11-18T15:22:52;7.70;99.90
3380;DHT22;1703;51.964;7.642;2023-11-18T15:25:19;7.70;99.90
3380;DHT22;1703;51.964;7.642;2023-11-18T15:27:47;7.70;99.90
3380;DHT22;1703;51.964;7.642;2023-11-18T15:30:17;7.80;99.90
3380;DHT22;1703;51.964;7.642;2023-11-18T15:32:45;7.80;99.90
3380;DHT22;1703;51.964;7.642;2023-11-18T15:35:13;7.80;99.90
3380;DHT22;1703;51.964;7.642;2023-11-18T15:37:42;7.80;99.90
3380;DHT22;1703;51.964;7.642;2023-11-18T15:40:13;7.70;99.90
3380;DHT22;1703;51.964;7.642;2023-11-18T15:42:45;7.60;99.90
3380;DHT22;1703;51.964;7.642;2023-11-18T15:45:16;7.50;99.90
3380;DHT22;1703;51.964;7.642;2023-11-18T15:47:43;7.50;99.90
3380;DHT22;1703;51.964;7.642;2023-11-18T15:50:13;7.50;99.90
3380;DHT22;1703;51.964;7.642;2023-11-18T15:52:41;7.40;99.90
3380;DHT22;1703;51.964;7.642;2023-11-18T15:55:08;7.40;99.90
3380;DHT22;1703;51.964;7.642;2023-11-18T15:57:39;7.30;99.90
3380;DHT22;1703;51.964;7.642;2023-11-18T16:00:07;7.40;99.90
3380;DHT22;1703;51.964;7.642;2023-11-18T16:02:42;7.50;99.90
3380;DHT22;1703;51.964;7.642;2023-11-18T16:05:19;7.50;99.90
3380;DHT22;1703;51.964;7.642;2023-11-18T16:07:55;7.40;99.90
3380;DHT22;1703;51.964;7.642;2023-11-18T16:10:26;7.30;99.90
3380;DHT22;1703;51.964;7.642;2023-11-18T16:13:11;7.40;99.90
3380;DHT22;1703;51.964;7.642;2023-11-18T16:15:39;7.40;99.90
3380;DHT22;1703;51.964;7.642;2023-11-18T16:18:10;7.40;99.90
3380;DHT22;1703;51.964;7.642;2023-11-18T16:20:37;7.50;99.90
3380;DHT22;1703;51.964;7.642;2023-11-18T16:23:03;7.50;99.90
3380;DHT22;1703;51.964;7.642;2023-11-18T16:25:30;7.40;99.90
3380;DHT22;1703;51.964;7.642;2023-11-18T16:27:59;7.40;99.90
3380;DHT22;1703;51.964;7.642;2023-11-18T16:30:28;7.40;99.90
3380;DHT22;1703;51.964;7.642;2023-11-18T16:32:55;7.30;99.90
3380;DHT22;1703;51.964;7.642;2023-11-18T16:35:24;7.30;99.90
3380;DHT22;1703;51.964;7.642;2023-11-18T16:37:51;7.30;99.90
3380;DHT22;1703;51.964;7.642;2023-11-18T16:40:18;7.20;99.90
3380;DHT22;1703;51.964;7.642;2023-11-18T16:42:47;7.20;99.90
3380;DHT22;1703;51.964;7.642;2023-11-18T16:45:15;7.30;99.90
3380;DHT22;1703;51.964;7.642;2023-11-18T16:47:42;7.20;99.90
3380;DHT22;1703;51.964;7.642;2023-11-18T16:50:11;7.20;99.90
3380;DHT22;1703;51.964;7.642;2023-11-18T16:52:41;7.20;99.90
3380;DHT22;1703;51.964;7.642;2023-11-18T16:55:09;7.20;99.90
3380;DHT22;1703;51.964;7.642;2023-11-18T16:57:36;7.20;99.90